CheckWX is a tool to help pilots better visualize weather data.  It is not intended as a substitute for an official pre-flight weather briefing.

08:17:52 UTC

FNME TAF
Menongue Airport
Menongue, Angola
TAF FNME 172300Z 1800/1812 14005KT 9999 FEW020 SCT030 BECMG 1810/1812 -TSRA

Feb-18@
00:00 UTC

Feb-18 @ 00:00 UTC

Feb-18@
10:00 UTC

Feb-18 @ 10:00 UTC

TAF FNME 172300Z 1800/1812 14005KT 9999 FEW020 SCT030
Wind
  • 140° at 5 KTS
Visibility
10,000+ meters
Cloud Levels
  • Few at 2,000' AGL
  • Scattered at 3,000' AGL

Feb-18@
10:00 UTC

Feb-18 @ 10:00 UTC

Feb-18@
12:00 UTC

Feb-18 @ 12:00 UTC

BECMG 1810/1812 -TSRA

Becoming

BecomingConditions expected by Mon, Feb 18, 2019 @ 12:00 UTC

Wind
  • 140° at 5 KTS
Visibility
10,000+ meters
Conditions
Light Thunderstorm, Light Rain
Cloud Levels
  • Few at 2,000' AGL
  • Scattered at 3,000' AGL